Terminal Aerodrome Forecast
Issued by NWS Sterling, VA

Home | Current Version | Previous Version | Text Only | Print | Product List | Glossary On
Versions: 1 2 3 4 5 6 7 8 9 10 11 12 13 14 15
000
FTUS41 KLWX 281700
TAFCHO
TAF
KCHO 281736Z 2818/2918 19008KT P6SM SCT030 OVC045
     FM281900 VRB03KT 5SM -SHRA SCT025 OVC060
     FM282200 VRB03KT P6SM OVC050
     FM290600 VRB03KT 5SM -SHRA OVC045
     FM291300 04006KT P6SM -SHRA OVC035
     FM291700 04005KT P6SM OVC035=

USA.gov is the U.S. government's official web portal to all federal, state and local government web resources and services.